Terminal Aerodrome Forecast
Issued by NWS Grand Forks, ND

Home | Current Version | Previous Version | Text Only | Print | Product List | Glossary Off
Versions: 1 2 3 4 5 6 7 8 9 10 11 12

000
FTUS43 KFGF 290520
TAFFAR
TAF
KFAR 290520Z 2906/3006 05008KT P6SM SCT120
     FM290800 VRB04KT P6SM SCT200
     FM291600 04010KT P6SM SCT250
     FM300100 05006KT P6SM SKC=

USA.gov is the U.S. government's official web portal to all federal, state and local government web resources and services.